sensor_id;sensor_type;location;lat;lon;timestamp;temperature;humidity
10411;DHT22;5251;52.112;8.606;2024-02-14T00:02:21;9.70;97.00
10411;DHT22;5251;52.112;8.606;2024-02-14T00:04:47;9.70;97.00
10411;DHT22;5251;52.112;8.606;2024-02-14T00:07:13;9.70;97.10
10411;DHT22;5251;52.112;8.606;2024-02-14T00:09:40;9.80;97.10
10411;DHT22;5251;52.112;8.606;2024-02-14T00:12:06;9.80;97.10
10411;DHT22;5251;52.112;8.606;2024-02-14T00:14:31;9.80;97.10
10411;DHT22;5251;52.112;8.606;2024-02-14T00:16:57;9.80;97.10
10411;DHT22;5251;52.112;8.606;2024-02-14T00:19:24;9.90;97.10
10411;DHT22;5251;52.112;8.606;2024-02-14T00:21:50;9.90;97.00
10411;DHT22;5251;52.112;8.606;2024-02-14T00:24:16;9.90;97.10
10411;DHT22;5251;52.112;8.606;2024-02-14T00:26:45;9.90;97.00
10411;DHT22;5251;52.112;8.606;2024-02-14T00:29:11;10.00;96.50
10411;DHT22;5251;52.112;8.606;2024-02-14T00:31:37;10.00;96.50
10411;DHT22;5251;52.112;8.606;2024-02-14T00:34:03;10.00;96.50
10411;DHT22;5251;52.112;8.606;2024-02-14T00:36:28;10.10;96.50
10411;DHT22;5251;52.112;8.606;2024-02-14T00:38:54;10.10;96.50
10411;DHT22;5251;52.112;8.606;2024-02-14T00:41:20;10.10;96.40
10411;DHT22;5251;52.112;8.606;2024-02-14T00:43:46;10.20;96.40
10411;DHT22;5251;52.112;8.606;2024-02-14T00:46:17;10.20;96.40
10411;DHT22;5251;52.112;8.606;2024-02-14T00:48:43;10.30;96.30
10411;DHT22;5251;52.112;8.606;2024-02-14T00:51:10;10.30;96.30
10411;DHT22;5251;52.112;8.606;2024-02-14T00:53:35;10.30;96.10
10411;DHT22;5251;52.112;8.606;2024-02-14T00:56:01;10.40;96.20
10411;DHT22;5251;52.112;8.606;2024-02-14T00:58:28;10.40;96.10
10411;DHT22;5251;52.112;8.606;2024-02-14T01:00:53;10.50;96.10
10411;DHT22;5251;52.112;8.606;2024-02-14T01:03:19;10.50;95.90
10411;DHT22;5251;52.112;8.606;2024-02-14T01:05:45;10.60;96.00
10411;DHT22;5251;52.112;8.606;2024-02-14T01:08:10;10.60;95.80
10411;DHT22;5251;52.112;8.606;2024-02-14T01:10:36;10.70;95.80
10411;DHT22;5251;52.112;8.606;2024-02-14T01:13:02;10.60;95.80
10411;DHT22;5251;52.112;8.606;2024-02-14T01:15:27;10.70;95.70
10411;DHT22;5251;52.112;8.606;2024-02-14T01:17:53;10.70;95.70
10411;DHT22;5251;52.112;8.606;2024-02-14T01:20:19;10.70;95.60
10411;DHT22;5251;52.112;8.606;2024-02-14T01:22:45;10.70;95.60
10411;DHT22;5251;52.112;8.606;2024-02-14T01:25:12;10.80;95.60
10411;DHT22;5251;52.112;8.606;2024-02-14T01:27:38;10.80;95.60
10411;DHT22;5251;52.112;8.606;2024-02-14T01:30:04;10.90;95.40
10411;DHT22;5251;52.112;8.606;2024-02-14T01:32:31;10.90;95.30
10411;DHT22;5251;52.112;8.606;2024-02-14T01:34:57;10.90;95.40
10411;DHT22;5251;52.112;8.606;2024-02-14T01:37:22;10.90;95.50
10411;DHT22;5251;52.112;8.606;2024-02-14T01:39:48;10.90;95.60
10411;DHT22;5251;52.112;8.606;2024-02-14T01:42:14;10.90;95.80
10411;DHT22;5251;52.112;8.606;2024-02-14T01:44:40;11.00;96.00
10411;DHT22;5251;52.112;8.606;2024-02-14T01:47:05;11.00;96.00
10411;DHT22;5251;52.112;8.606;2024-02-14T01:49:33;11.00;96.00
10411;DHT22;5251;52.112;8.606;2024-02-14T01:52:02;11.00;96.10
10411;DHT22;5251;52.112;8.606;2024-02-14T01:54:29;11.00;96.30
10411;DHT22;5251;52.112;8.606;2024-02-14T01:56:55;11.00;96.80
10411;DHT22;5251;52.112;8.606;2024-02-14T01:59:21;11.00;97.10
10411;DHT22;5251;52.112;8.606;2024-02-14T02:01:48;11.00;97.30
10411;DHT22;5251;52.112;8.606;2024-02-14T02:04:14;11.00;97.50
10411;DHT22;5251;52.112;8.606;2024-02-14T02:06:40;11.00;97.60
10411;DHT22;5251;52.112;8.606;2024-02-14T02:09:08;11.00;97.90
10411;DHT22;5251;52.112;8.606;2024-02-14T02:11:53;10.90;98.40
10411;DHT22;5251;52.112;8.606;2024-02-14T02:14:22;10.90;98.20
10411;DHT22;5251;52.112;8.606;2024-02-14T02:16:48;10.90;98.30
10411;DHT22;5251;52.112;8.606;2024-02-14T02:19:14;10.90;98.40
10411;DHT22;5251;52.112;8.606;2024-02-14T02:21:44;10.90;98.40
10411;DHT22;5251;52.112;8.606;2024-02-14T02:24:11;10.90;98.50
10411;DHT22;5251;52.112;8.606;2024-02-14T02:26:37;10.90;98.50
10411;DHT22;5251;52.112;8.606;2024-02-14T02:29:03;10.80;98.60
10411;DHT22;5251;52.112;8.606;2024-02-14T02:31:30;10.80;99.00
10411;DHT22;5251;52.112;8.606;2024-02-14T02:33:57;10.80;98.70
10411;DHT22;5251;52.112;8.606;2024-02-14T02:36:23;10.80;98.70
10411;DHT22;5251;52.112;8.606;2024-02-14T02:38:50;10.80;98.80
10411;DHT22;5251;52.112;8.606;2024-02-14T02:41:17;10.80;98.80
10411;DHT22;5251;52.112;8.606;2024-02-14T02:43:42;10.80;98.80
10411;DHT22;5251;52.112;8.606;2024-02-14T02:46:11;10.80;98.90
10411;DHT22;5251;52.112;8.606;2024-02-14T02:48:37;10.80;98.90
10411;DHT22;5251;52.112;8.606;2024-02-14T02:51:03;10.90;98.90
10411;DHT22;5251;52.112;8.606;2024-02-14T02:53:28;10.90;98.90
10411;DHT22;5251;52.112;8.606;2024-02-14T02:55:54;10.90;98.90
10411;DHT22;5251;52.112;8.606;2024-02-14T02:58:22;10.90;98.90
10411;DHT22;5251;52.112;8.606;2024-02-14T03:00:48;10.90;99.00
10411;DHT22;5251;52.112;8.606;2024-02-14T03:03:16;10.90;98.90
10411;DHT22;5251;52.112;8.606;2024-02-14T03:05:42;10.90;98.90
10411;DHT22;5251;52.112;8.606;2024-02-14T03:08:10;10.90;98.90
10411;DHT22;5251;52.112;8.606;2024-02-14T03:10:39;11.00;98.90
10411;DHT22;5251;52.112;8.606;2024-02-14T03:13:06;11.00;99.00
10411;DHT22;5251;52.112;8.606;2024-02-14T03:15:34;11.00;99.00
10411;DHT22;5251;52.112;8.606;2024-02-14T03:17:59;11.00;99.10
10411;DHT22;5251;52.112;8.606;2024-02-14T03:20:25;11.00;99.30
10411;DHT22;5251;52.112;8.606;2024-02-14T03:22:50;11.00;99.50
10411;DHT22;5251;52.112;8.606;2024-02-14T03:25:18;11.00;99.70
10411;DHT22;5251;52.112;8.606;2024-02-14T03:27:44;11.00;99.80
10411;DHT22;5251;52.112;8.606;2024-02-14T03:30:14;11.00;99.90
10411;DHT22;5251;52.112;8.606;2024-02-14T03:32:43;11.00;99.90
10411;DHT22;5251;52.112;8.606;2024-02-14T03:35:08;11.00;99.90
10411;DHT22;5251;52.112;8.606;2024-02-14T03:37:37;11.00;99.90
10411;DHT22;5251;52.112;8.606;2024-02-14T03:40:05;11.00;99.90
10411;DHT22;5251;52.112;8.606;2024-02-14T03:42:32;11.00;99.90
10411;DHT22;5251;52.112;8.606;2024-02-14T03:44:58;11.00;99.90
10411;DHT22;5251;52.112;8.606;2024-02-14T03:47:28;11.00;99.90
10411;DHT22;5251;52.112;8.606;2024-02-14T03:49:54;11.00;99.90
10411;DHT22;5251;52.112;8.606;2024-02-14T03:52:20;11.00;99.90
10411;DHT22;5251;52.112;8.606;2024-02-14T03:54:48;10.90;99.90
10411;DHT22;5251;52.112;8.606;2024-02-14T03:57:13;10.90;99.90
10411;DHT22;5251;52.112;8.606;2024-02-14T03:59:39;10.90;99.90
10411;DHT22;5251;52.112;8.606;2024-02-14T04:02:05;10.90;99.90
10411;DHT22;5251;52.112;8.606;2024-02-14T04:04:36;10.80;99.90
10411;DHT22;5251;52.112;8.606;2024-02-14T04:07:03;10.80;99.90
10411;DHT22;5251;52.112;8.606;2024-02-14T04:09:28;10.80;99.90
10411;DHT22;5251;52.112;8.606;2024-02-14T04:11:54;10.80;99.90
10411;DHT22;5251;52.112;8.606;2024-02-14T04:14:20;10.80;99.90
10411;DHT22;5251;52.112;8.606;2024-02-14T04:16:46;10.80;99.90
10411;DHT22;5251;52.112;8.606;2024-02-14T04:19:12;10.80;99.90
10411;DHT22;5251;52.112;8.606;2024-02-14T04:21:38;10.80;99.90
10411;DHT22;5251;52.112;8.606;2024-02-14T04:24:04;10.80;99.90
10411;DHT22;5251;52.112;8.606;2024-02-14T04:26:30;10.80;99.90
10411;DHT22;5251;52.112;8.606;2024-02-14T04:28:55;10.80;99.90
10411;DHT22;5251;52.112;8.606;2024-02-14T04:31:21;10.80;99.90
10411;DHT22;5251;52.112;8.606;2024-02-14T04:33:47;10.80;99.90
10411;DHT22;5251;52.112;8.606;2024-02-14T04:36:18;10.70;99.90
10411;DHT22;5251;52.112;8.606;2024-02-14T04:38:44;10.70;99.90
10411;DHT22;5251;52.112;8.606;2024-02-14T04:41:10;10.70;99.90
10411;DHT22;5251;52.112;8.606;2024-02-14T04:43:36;10.80;99.90
10411;DHT22;5251;52.112;8.606;2024-02-14T04:46:01;10.80;99.90
10411;DHT22;5251;52.112;8.606;2024-02-14T04:48:27;10.80;99.90
10411;DHT22;5251;52.112;8.606;2024-02-14T04:50:53;10.80;99.90
10411;DHT22;5251;52.112;8.606;2024-02-14T04:53:18;10.80;99.90
10411;DHT22;5251;52.112;8.606;2024-02-14T04:55:45;10.80;99.90
10411;DHT22;5251;52.112;8.606;2024-02-14T04:58:11;10.80;99.90
10411;DHT22;5251;52.112;8.606;2024-02-14T05:00:36;10.80;99.90
10411;DHT22;5251;52.112;8.606;2024-02-14T05:03:02;10.80;99.90
10411;DHT22;5251;52.112;8.606;2024-02-14T05:05:29;10.80;99.90
10411;DHT22;5251;52.112;8.606;2024-02-14T05:07:54;10.80;99.90
10411;DHT22;5251;52.112;8.606;2024-02-14T05:10:20;10.80;99.90
10411;DHT22;5251;52.112;8.606;2024-02-14T05:12:45;10.80;99.90
10411;DHT22;5251;52.112;8.606;2024-02-14T05:15:11;10.90;99.90
10411;DHT22;5251;52.112;8.606;2024-02-14T05:17:38;10.80;99.90
10411;DHT22;5251;52.112;8.606;2024-02-14T05:20:05;10.90;99.90
10411;DHT22;5251;52.112;8.606;2024-02-14T05:22:35;10.80;99.90
10411;DHT22;5251;52.112;8.606;2024-02-14T05:25:02;10.90;99.90
10411;DHT22;5251;52.112;8.606;2024-02-14T05:27:27;10.90;99.90
10411;DHT22;5251;52.112;8.606;2024-02-14T05:29:53;10.90;99.90
10411;DHT22;5251;52.112;8.606;2024-02-14T05:32:18;10.90;99.90
10411;DHT22;5251;52.112;8.606;2024-02-14T05:34:44;11.00;99.90
10411;DHT22;5251;52.112;8.606;2024-02-14T05:37:10;11.00;99.90
10411;DHT22;5251;52.112;8.606;2024-02-14T05:39:35;11.00;99.90
10411;DHT22;5251;52.112;8.606;2024-02-14T05:42:01;11.00;99.90
10411;DHT22;5251;52.112;8.606;2024-02-14T05:44:27;11.00;99.90
10411;DHT22;5251;52.112;8.606;2024-02-14T05:46:53;11.00;99.90
10411;DHT22;5251;52.112;8.606;2024-02-14T05:49:21;11.00;99.90
10411;DHT22;5251;52.112;8.606;2024-02-14T05:51:46;11.00;99.90
10411;DHT22;5251;52.112;8.606;2024-02-14T05:54:12;11.10;99.90
10411;DHT22;5251;52.112;8.606;2024-02-14T05:56:38;11.00;99.90
10411;DHT22;5251;52.112;8.606;2024-02-14T05:59:03;11.10;99.90
10411;DHT22;5251;52.112;8.606;2024-02-14T06:01:30;11.10;99.90
10411;DHT22;5251;52.112;8.606;2024-02-14T06:03:55;11.10;99.90
10411;DHT22;5251;52.112;8.606;2024-02-14T06:06:21;11.10;99.90
10411;DHT22;5251;52.112;8.606;2024-02-14T06:08:47;11.10;99.90
10411;DHT22;5251;52.112;8.606;2024-02-14T06:11:12;11.10;99.90
10411;DHT22;5251;52.112;8.606;2024-02-14T06:13:39;11.10;99.90
10411;DHT22;5251;52.112;8.606;2024-02-14T06:16:05;11.20;99.90
10411;DHT22;5251;52.112;8.606;2024-02-14T06:18:31;11.20;99.90
10411;DHT22;5251;52.112;8.606;2024-02-14T06:20:57;11.20;99.90
10411;DHT22;5251;52.112;8.606;2024-02-14T06:23:22;11.20;99.90
10411;DHT22;5251;52.112;8.606;2024-02-14T06:25:48;11.20;99.90
10411;DHT22;5251;52.112;8.606;2024-02-14T06:28:14;11.10;99.90
10411;DHT22;5251;52.112;8.606;2024-02-14T06:30:39;11.20;99.90
10411;DHT22;5251;52.112;8.606;2024-02-14T06:33:05;11.20;99.90
10411;DHT22;5251;52.112;8.606;2024-02-14T06:35:30;11.20;99.90
10411;DHT22;5251;52.112;8.606;2024-02-14T06:37:56;11.20;99.90
10411;DHT22;5251;52.112;8.606;2024-02-14T06:40:22;11.20;99.90
10411;DHT22;5251;52.112;8.606;2024-02-14T06:42:48;11.20;99.90
10411;DHT22;5251;52.112;8.606;2024-02-14T06:45:17;11.20;99.90
10411;DHT22;5251;52.112;8.606;2024-02-14T06:47:43;11.20;99.90
10411;DHT22;5251;52.112;8.606;2024-02-14T06:50:08;11.20;99.90
10411;DHT22;5251;52.112;8.606;2024-02-14T06:52:34;11.30;99.90
10411;DHT22;5251;52.112;8.606;2024-02-14T06:55:00;11.30;99.90
10411;DHT22;5251;52.112;8.606;2024-02-14T06:57:26;11.30;99.90
10411;DHT22;5251;52.112;8.606;2024-02-14T06:59:51;11.30;99.90
10411;DHT22;5251;52.112;8.606;2024-02-14T07:02:17;11.30;99.90
10411;DHT22;5251;52.112;8.606;2024-02-14T07:04:43;11.30;99.90
10411;DHT22;5251;52.112;8.606;2024-02-14T07:07:09;11.30;99.90
10411;DHT22;5251;52.112;8.606;2024-02-14T07:09:34;11.40;99.90
10411;DHT22;5251;52.112;8.606;2024-02-14T07:12:04;11.30;99.90
10411;DHT22;5251;52.112;8.606;2024-02-14T07:14:31;11.40;99.90
10411;DHT22;5251;52.112;8.606;2024-02-14T07:16:56;11.40;99.90
10411;DHT22;5251;52.112;8.606;2024-02-14T07:19:22;11.40;99.90
10411;DHT22;5251;52.112;8.606;2024-02-14T07:21:47;11.40;99.90
10411;DHT22;5251;52.112;8.606;2024-02-14T07:24:13;11.50;99.90
10411;DHT22;5251;52.112;8.606;2024-02-14T07:26:39;11.50;99.90
10411;DHT22;5251;52.112;8.606;2024-02-14T07:29:06;11.50;99.90
10411;DHT22;5251;52.112;8.606;2024-02-14T07:31:32;11.50;99.90
10411;DHT22;5251;52.112;8.606;2024-02-14T07:34:00;11.50;99.90
10411;DHT22;5251;52.112;8.606;2024-02-14T07:36:25;11.60;99.90
10411;DHT22;5251;52.112;8.606;2024-02-14T07:38:51;11.60;99.90
10411;DHT22;5251;52.112;8.606;2024-02-14T07:41:17;11.60;99.90
10411;DHT22;5251;52.112;8.606;2024-02-14T07:43:42;11.60;99.90
10411;DHT22;5251;52.112;8.606;2024-02-14T07:46:08;11.70;99.90
10411;DHT22;5251;52.112;8.606;2024-02-14T07:48:34;11.70;99.90
10411;DHT22;5251;52.112;8.606;2024-02-14T07:50:59;11.70;99.90
10411;DHT22;5251;52.112;8.606;2024-02-14T07:53:25;11.70;99.90
10411;DHT22;5251;52.112;8.606;2024-02-14T07:55:51;11.70;99.90
10411;DHT22;5251;52.112;8.606;2024-02-14T07:58:18;11.80;99.90
10411;DHT22;5251;52.112;8.606;2024-02-14T08:00:44;11.80;99.90
10411;DHT22;5251;52.112;8.606;2024-02-14T08:03:09;11.80;99.90
10411;DHT22;5251;52.112;8.606;2024-02-14T08:05:35;11.80;99.90
10411;DHT22;5251;52.112;8.606;2024-02-14T08:08:01;11.90;99.90
10411;DHT22;5251;52.112;8.606;2024-02-14T08:10:26;11.90;99.90
10411;DHT22;5251;52.112;8.606;2024-02-14T08:12:52;11.90;99.90
10411;DHT22;5251;52.112;8.606;2024-02-14T08:15:17;11.90;99.90
10411;DHT22;5251;52.112;8.606;2024-02-14T08:17:43;12.00;99.90
10411;DHT22;5251;52.112;8.606;2024-02-14T08:20:09;12.00;99.90
10411;DHT22;5251;52.112;8.606;2024-02-14T08:22:35;12.00;99.90
10411;DHT22;5251;52.112;8.606;2024-02-14T08:25:00;12.00;99.90
10411;DHT22;5251;52.112;8.606;2024-02-14T08:27:26;12.00;99.90
10411;DHT22;5251;52.112;8.606;2024-02-14T08:29:53;12.00;99.90
10411;DHT22;5251;52.112;8.606;2024-02-14T08:32:18;12.10;99.90
10411;DHT22;5251;52.112;8.606;2024-02-14T08:34:44;12.10;99.90
10411;DHT22;5251;52.112;8.606;2024-02-14T08:37:10;12.10;99.90
10411;DHT22;5251;52.112;8.606;2024-02-14T08:39:36;12.20;99.90
10411;DHT22;5251;52.112;8.606;2024-02-14T08:42:01;12.20;99.90
10411;DHT22;5251;52.112;8.606;2024-02-14T08:44:33;12.10;99.90
10411;DHT22;5251;52.112;8.606;2024-02-14T08:46:59;12.20;99.90
10411;DHT22;5251;52.112;8.606;2024-02-14T08:49:25;12.20;99.90
10411;DHT22;5251;52.112;8.606;2024-02-14T08:51:50;12.20;99.90
10411;DHT22;5251;52.112;8.606;2024-02-14T08:54:16;12.30;99.90
10411;DHT22;5251;52.112;8.606;2024-02-14T08:56:41;12.30;99.90
10411;DHT22;5251;52.112;8.606;2024-02-14T08:59:07;12.30;99.90
10411;DHT22;5251;52.112;8.606;2024-02-14T09:01:33;12.30;99.90
10411;DHT22;5251;52.112;8.606;2024-02-14T09:03:59;12.30;99.90
10411;DHT22;5251;52.112;8.606;2024-02-14T09:06:25;12.30;99.90
10411;DHT22;5251;52.112;8.606;2024-02-14T09:08:55;12.40;99.90
10411;DHT22;5251;52.112;8.606;2024-02-14T09:11:20;12.40;99.90
10411;DHT22;5251;52.112;8.606;2024-02-14T09:13:48;12.50;99.90
10411;DHT22;5251;52.112;8.606;2024-02-14T09:16:16;12.50;99.90
10411;DHT22;5251;52.112;8.606;2024-02-14T09:18:42;12.50;99.90
10411;DHT22;5251;52.112;8.606;2024-02-14T09:21:10;12.50;99.90
10411;DHT22;5251;52.112;8.606;2024-02-14T09:23:35;12.50;99.90
10411;DHT22;5251;52.112;8.606;2024-02-14T09:26:04;12.60;99.90
10411;DHT22;5251;52.112;8.606;2024-02-14T09:28:30;12.60;99.90
10411;DHT22;5251;52.112;8.606;2024-02-14T09:30:55;12.60;99.90
10411;DHT22;5251;52.112;8.606;2024-02-14T09:33:21;12.70;99.90
10411;DHT22;5251;52.112;8.606;2024-02-14T09:35:47;12.70;99.90
10411;DHT22;5251;52.112;8.606;2024-02-14T09:38:13;12.80;99.90
10411;DHT22;5251;52.112;8.606;2024-02-14T09:40:42;12.80;99.90
10411;DHT22;5251;52.112;8.606;2024-02-14T09:43:38;12.80;99.90
10411;DHT22;5251;52.112;8.606;2024-02-14T09:46:04;12.90;99.90
10411;DHT22;5251;52.112;8.606;2024-02-14T09:48:30;13.00;99.90
10411;DHT22;5251;52.112;8.606;2024-02-14T09:50:56;13.00;99.90
10411;DHT22;5251;52.112;8.606;2024-02-14T09:53:23;13.00;99.90
10411;DHT22;5251;52.112;8.606;2024-02-14T09:55:51;13.00;99.90
10411;DHT22;5251;52.112;8.606;2024-02-14T09:58:19;13.10;99.90
10411;DHT22;5251;52.112;8.606;2024-02-14T10:00:45;13.10;99.90
10411;DHT22;5251;52.112;8.606;2024-02-14T10:03:11;13.20;99.90
10411;DHT22;5251;52.112;8.606;2024-02-14T10:05:36;13.30;99.90
10411;DHT22;5251;52.112;8.606;2024-02-14T10:08:03;13.30;99.90
10411;DHT22;5251;52.112;8.606;2024-02-14T10:10:31;13.30;99.90
10411;DHT22;5251;52.112;8.606;2024-02-14T10:12:56;13.40;99.90
10411;DHT22;5251;52.112;8.606;2024-02-14T10:15:23;13.40;99.90
10411;DHT22;5251;52.112;8.606;2024-02-14T10:17:49;13.40;99.90
10411;DHT22;5251;52.112;8.606;2024-02-14T10:20:18;13.50;99.90
10411;DHT22;5251;52.112;8.606;2024-02-14T10:22:43;13.50;99.90
10411;DHT22;5251;52.112;8.606;2024-02-14T10:25:10;13.50;99.90
10411;DHT22;5251;52.112;8.606;2024-02-14T10:27:37;13.60;99.90
10411;DHT22;5251;52.112;8.606;2024-02-14T10:30:08;13.60;99.90
10411;DHT22;5251;52.112;8.606;2024-02-14T10:32:38;13.60;99.90
10411;DHT22;5251;52.112;8.606;2024-02-14T10:35:06;13.60;99.90
10411;DHT22;5251;52.112;8.606;2024-02-14T10:37:34;13.60;99.90
10411;DHT22;5251;52.112;8.606;2024-02-14T10:40:02;13.70;99.90
10411;DHT22;5251;52.112;8.606;2024-02-14T10:42:30;13.70;99.90
10411;DHT22;5251;52.112;8.606;2024-02-14T10:44:55;13.70;99.90
10411;DHT22;5251;52.112;8.606;2024-02-14T10:47:25;13.70;99.90
10411;DHT22;5251;52.112;8.606;2024-02-14T10:49:58;13.80;99.90
10411;DHT22;5251;52.112;8.606;2024-02-14T10:52:26;13.80;99.90
10411;DHT22;5251;52.112;8.606;2024-02-14T10:54:56;13.80;99.90
10411;DHT22;5251;52.112;8.606;2024-02-14T10:57:25;13.90;99.90
10411;DHT22;5251;52.112;8.606;2024-02-14T10:59:51;13.90;99.90
10411;DHT22;5251;52.112;8.606;2024-02-14T11:02:19;13.90;99.90
10411;DHT22;5251;52.112;8.606;2024-02-14T11:04:45;13.90;99.90
10411;DHT22;5251;52.112;8.606;2024-02-14T11:07:11;13.90;99.90
10411;DHT22;5251;52.112;8.606;2024-02-14T11:09:39;13.90;99.90
10411;DHT22;5251;52.112;8.606;2024-02-14T11:12:10;14.00;99.90
10411;DHT22;5251;52.112;8.606;2024-02-14T11:14:36;14.00;99.90
10411;DHT22;5251;52.112;8.606;2024-02-14T11:17:04;14.10;99.90
10411;DHT22;5251;52.112;8.606;2024-02-14T11:19:35;14.20;99.90
10411;DHT22;5251;52.112;8.606;2024-02-14T11:22:18;14.20;99.90
10411;DHT22;5251;52.112;8.606;2024-02-14T11:24:47;14.30;99.90
10411;DHT22;5251;52.112;8.606;2024-02-14T11:27:13;14.30;99.90
10411;DHT22;5251;52.112;8.606;2024-02-14T11:29:40;14.30;99.90
10411;DHT22;5251;52.112;8.606;2024-02-14T11:32:07;14.30;99.90
10411;DHT22;5251;52.112;8.606;2024-02-14T11:34:36;14.40;99.90
10411;DHT22;5251;52.112;8.606;2024-02-14T11:37:01;14.40;99.90
10411;DHT22;5251;52.112;8.606;2024-02-14T11:39:27;14.40;99.90
10411;DHT22;5251;52.112;8.606;2024-02-14T11:41:53;14.40;99.90
10411;DHT22;5251;52.112;8.606;2024-02-14T11:44:19;14.50;99.90
10411;DHT22;5251;52.112;8.606;2024-02-14T11:46:48;14.50;99.90
10411;DHT22;5251;52.112;8.606;2024-02-14T11:49:14;14.50;99.90
10411;DHT22;5251;52.112;8.606;2024-02-14T11:51:40;14.50;99.90
10411;DHT22;5251;52.112;8.606;2024-02-14T11:54:07;14.60;99.90
10411;DHT22;5251;52.112;8.606;2024-02-14T11:56:37;14.60;99.90
10411;DHT22;5251;52.112;8.606;2024-02-14T11:59:04;14.60;99.90
10411;DHT22;5251;52.112;8.606;2024-02-14T12:01:31;14.70;99.90
10411;DHT22;5251;52.112;8.606;2024-02-14T12:04:02;14.80;99.90
10411;DHT22;5251;52.112;8.606;2024-02-14T12:06:30;14.80;99.90
10411;DHT22;5251;52.112;8.606;2024-02-14T12:08:58;14.80;99.90
10411;DHT22;5251;52.112;8.606;2024-02-14T12:11:38;14.90;99.90
10411;DHT22;5251;52.112;8.606;2024-02-14T12:14:06;14.90;99.90
10411;DHT22;5251;52.112;8.606;2024-02-14T12:16:36;14.90;99.90
10411;DHT22;5251;52.112;8.606;2024-02-14T12:19:07;14.90;99.90
10411;DHT22;5251;52.112;8.606;2024-02-14T12:21:38;14.90;99.90
10411;DHT22;5251;52.112;8.606;2024-02-14T12:24:08;14.90;99.90
10411;DHT22;5251;52.112;8.606;2024-02-14T12:26:35;14.90;99.90
10411;DHT22;5251;52.112;8.606;2024-02-14T12:29:06;14.90;99.90
10411;DHT22;5251;52.112;8.606;2024-02-14T12:31:33;14.90;99.90
10411;DHT22;5251;52.112;8.606;2024-02-14T12:34:00;14.90;99.90
10411;DHT22;5251;52.112;8.606;2024-02-14T12:36:28;14.90;99.90
10411;DHT22;5251;52.112;8.606;2024-02-14T12:38:54;15.00;99.90
10411;DHT22;5251;52.112;8.606;2024-02-14T12:41:21;15.00;99.90
10411;DHT22;5251;52.112;8.606;2024-02-14T12:43:49;15.00;99.90
10411;DHT22;5251;52.112;8.606;2024-02-14T12:46:15;15.00;99.90
10411;DHT22;5251;52.112;8.606;2024-02-14T12:48:41;14.90;99.90
10411;DHT22;5251;52.112;8.606;2024-02-14T12:51:07;14.90;99.90
10411;DHT22;5251;52.112;8.606;2024-02-14T12:53:34;14.90;99.90
10411;DHT22;5251;52.112;8.606;2024-02-14T12:55:59;14.90;99.90
10411;DHT22;5251;52.112;8.606;2024-02-14T12:58:25;14.80;99.90
10411;DHT22;5251;52.112;8.606;2024-02-14T13:00:51;14.80;99.90
10411;DHT22;5251;52.112;8.606;2024-02-14T13:03:16;14.80;99.90
10411;DHT22;5251;52.112;8.606;2024-02-14T13:05:43;14.70;99.90
10411;DHT22;5251;52.112;8.606;2024-02-14T13:08:08;14.70;99.90
10411;DHT22;5251;52.112;8.606;2024-02-14T13:10:36;14.70;99.90
10411;DHT22;5251;52.112;8.606;2024-02-14T13:13:02;14.70;99.90
10411;DHT22;5251;52.112;8.606;2024-02-14T13:15:28;14.70;99.90
10411;DHT22;5251;52.112;8.606;2024-02-14T13:17:54;14.70;99.90
10411;DHT22;5251;52.112;8.606;2024-02-14T13:20:21;14.70;99.90
10411;DHT22;5251;52.112;8.606;2024-02-14T13:22:47;14.80;99.90
10411;DHT22;5251;52.112;8.606;2024-02-14T13:25:13;14.70;99.90
10411;DHT22;5251;52.112;8.606;2024-02-14T13:27:40;14.80;99.90
10411;DHT22;5251;52.112;8.606;2024-02-14T13:30:06;14.70;99.90
10411;DHT22;5251;52.112;8.606;2024-02-14T13:32:32;14.70;99.90
10411;DHT22;5251;52.112;8.606;2024-02-14T13:34:58;14.70;99.90
10411;DHT22;5251;52.112;8.606;2024-02-14T13:37:24;14.70;99.90
10411;DHT22;5251;52.112;8.606;2024-02-14T13:39:51;14.70;99.90
10411;DHT22;5251;52.112;8.606;2024-02-14T13:42:17;14.70;99.90
10411;DHT22;5251;52.112;8.606;2024-02-14T13:44:43;14.60;99.90
10411;DHT22;5251;52.112;8.606;2024-02-14T13:47:08;14.60;99.90
10411;DHT22;5251;52.112;8.606;2024-02-14T13:49:34;14.60;99.90
10411;DHT22;5251;52.112;8.606;2024-02-14T13:51:59;14.60;99.90
10411;DHT22;5251;52.112;8.606;2024-02-14T13:54:25;14.70;99.90
10411;DHT22;5251;52.112;8.606;2024-02-14T13:56:51;14.70;99.90
10411;DHT22;5251;52.112;8.606;2024-02-14T13:59:17;14.70;99.90
10411;DHT22;5251;52.112;8.606;2024-02-14T14:01:45;14.70;99.90
10411;DHT22;5251;52.112;8.606;2024-02-14T14:04:12;14.80;99.90
10411;DHT22;5251;52.112;8.606;2024-02-14T14:06:38;14.80;99.90
10411;DHT22;5251;52.112;8.606;2024-02-14T14:09:04;14.80;99.90
10411;DHT22;5251;52.112;8.606;2024-02-14T14:11:33;14.80;99.90
10411;DHT22;5251;52.112;8.606;2024-02-14T14:13:58;14.90;99.90
10411;DHT22;5251;52.112;8.606;2024-02-14T14:16:25;14.90;99.90
10411;DHT22;5251;52.112;8.606;2024-02-14T14:18:51;14.90;99.90
10411;DHT22;5251;52.112;8.606;2024-02-14T14:21:17;14.90;99.90
10411;DHT22;5251;52.112;8.606;2024-02-14T14:23:43;14.90;99.90
10411;DHT22;5251;52.112;8.606;2024-02-14T14:26:09;14.90;99.90
10411;DHT22;5251;52.112;8.606;2024-02-14T14:28:35;14.90;99.90
10411;DHT22;5251;52.112;8.606;2024-02-14T14:31:01;15.00;99.90
10411;DHT22;5251;52.112;8.606;2024-02-14T14:33:28;14.90;99.90
10411;DHT22;5251;52.112;8.606;2024-02-14T14:35:54;14.90;99.90
10411;DHT22;5251;52.112;8.606;2024-02-14T14:38:20;15.00;99.90
10411;DHT22;5251;52.112;8.606;2024-02-14T14:40:46;14.90;99.90
10411;DHT22;5251;52.112;8.606;2024-02-14T14:43:13;14.90;99.90
10411;DHT22;5251;52.112;8.606;2024-02-14T14:45:38;14.90;99.90
10411;DHT22;5251;52.112;8.606;2024-02-14T14:48:05;14.90;99.90
10411;DHT22;5251;52.112;8.606;2024-02-14T14:50:31;14.90;99.90
10411;DHT22;5251;52.112;8.606;2024-02-14T14:52:58;14.90;99.90
10411;DHT22;5251;52.112;8.606;2024-02-14T14:55:25;14.80;99.90
10411;DHT22;5251;52.112;8.606;2024-02-14T14:57:51;14.90;99.90
10411;DHT22;5251;52.112;8.606;2024-02-14T15:00:17;14.90;99.90
10411;DHT22;5251;52.112;8.606;2024-02-14T15:02:43;14.80;99.90
10411;DHT22;5251;52.112;8.606;2024-02-14T15:05:13;14.80;99.90
10411;DHT22;5251;52.112;8.606;2024-02-14T15:07:39;14.80;99.90
10411;DHT22;5251;52.112;8.606;2024-02-14T15:10:06;14.80;99.90
10411;DHT22;5251;52.112;8.606;2024-02-14T15:12:33;14.80;99.90
10411;DHT22;5251;52.112;8.606;2024-02-14T15:15:04;14.70;99.90
10411;DHT22;5251;52.112;8.606;2024-02-14T15:17:30;14.70;99.90
10411;DHT22;5251;52.112;8.606;2024-02-14T15:19:56;14.70;99.90
10411;DHT22;5251;52.112;8.606;2024-02-14T15:22:22;14.70;99.90
10411;DHT22;5251;52.112;8.606;2024-02-14T15:24:50;14.70;99.90
10411;DHT22;5251;52.112;8.606;2024-02-14T15:27:18;14.70;99.90
10411;DHT22;5251;52.112;8.606;2024-02-14T15:29:49;14.60;99.90
10411;DHT22;5251;52.112;8.606;2024-02-14T15:32:33;14.60;99.90
10411;DHT22;5251;52.112;8.606;2024-02-14T15:35:18;14.60;99.90
10411;DHT22;5251;52.112;8.606;2024-02-14T15:37:44;14.60;99.90
10411;DHT22;5251;52.112;8.606;2024-02-14T15:40:17;14.60;99.90
10411;DHT22;5251;52.112;8.606;2024-02-14T15:42:43;14.60;99.90
10411;DHT22;5251;52.112;8.606;2024-02-14T15:45:09;14.60;99.90